Time;durP1;ratioP1;P1;durP2;ratioP2;P2;SDS_P1;SDS_P2;PMS_P1;PMS_P2;Temp;Humidity;BMP_temperature;BMP_pressure;BME280_temperature;BME280_humidity;BME280_pressure;Samples;Min_cycle;Max_cycle;Signal;HPM_P1;HPM_P2
2021/05/04 00:02:19;;;;;;;20.40;16.77;;;23.50;51.90;;;;;;5032673;28;20172;-59
2021/05/04 00:04:45;;;;;;;20.48;15.73;;;23.50;51.30;;;;;;5032974;28;20053;-59
2021/05/04 00:07:11;;;;;;;17.98;15.23;;;23.50;51.30;;;;;;5031412;28;20463;-58
2021/05/04 00:09:38;;;;;;;17.40;14.02;;;23.50;51.30;;;;;;5032675;28;20108;-59
2021/05/04 00:12:04;;;;;;;19.02;15.75;;;23.50;51.20;;;;;;5032302;28;20109;-59
2021/05/04 00:14:31;;;;;;;16.70;14.85;;;23.50;51.30;;;;;;5032265;28;20056;-59
2021/05/04 00:16:58;;;;;;;16.02;13.40;;;23.50;51.30;;;;;;5031986;28;20487;-59
2021/05/04 00:19:23;;;;;;;15.63;13.32;;;23.50;51.30;;;;;;5032472;28;20032;-59
2021/05/04 00:21:51;;;;;;;19.17;14.73;;;23.50;51.30;;;;;;5032115;28;20028;-59
2021/05/04 00:24:17;;;;;;;16.25;14.35;;;23.40;51.20;;;;;;5032365;28;20384;-59
2021/05/04 00:26:43;;;;;;;17.73;13.35;;;23.50;51.30;;;;;;5032184;28;20040;-59
2021/05/04 00:29:09;;;;;;;16.95;12.95;;;23.50;51.30;;;;;;5032328;28;20038;-59
2021/05/04 00:31:35;;;;;;;19.05;12.52;;;23.50;51.30;;;;;;5031902;28;20029;-59
2021/05/04 00:34:01;;;;;;;15.40;12.65;;;23.40;51.20;;;;;;5030279;28;20068;-59
2021/05/04 00:36:27;;;;;;;16.05;12.80;;;23.50;51.30;;;;;;5030549;28;20037;-59
2021/05/04 00:38:53;;;;;;;15.32;12.15;;;23.40;51.20;;;;;;5032288;28;20403;-59
2021/05/04 00:41:19;;;;;;;12.88;11.13;;;23.40;51.20;;;;;;5030969;28;20037;-59
2021/05/04 00:43:45;;;;;;;11.52;10.20;;;23.40;51.20;;;;;;5031771;28;20091;-59
2021/05/04 00:46:11;;;;;;;12.63;10.60;;;23.40;51.20;;;;;;5031396;28;20029;-59
2021/05/04 00:48:37;;;;;;;13.45;10.60;;;23.40;51.20;;;;;;5031182;28;20029;-59
2021/05/04 00:51:03;;;;;;;13.23;9.63;;;23.40;51.20;;;;;;5032132;28;20039;-59
2021/05/04 00:53:30;;;;;;;12.80;10.48;;;23.40;51.20;;;;;;5031687;28;20466;-59
2021/05/04 00:55:59;;;;;;;13.00;9.88;;;23.40;51.20;;;;;;5031355;28;20088;-59
2021/05/04 00:58:25;;;;;;;10.88;8.95;;;23.40;51.20;;;;;;5031083;28;20109;-59
2021/05/04 01:00:51;;;;;;;11.40;8.30;;;23.40;51.20;;;;;;5031408;28;20395;-59
2021/05/04 01:03:18;;;;;;;11.07;9.00;;;23.40;51.20;;;;;;5031077;28;20068;-58
2021/05/04 01:05:44;;;;;;;10.88;8.55;;;23.40;51.20;;;;;;5013327;28;20317;-59
2021/05/04 01:08:10;;;;;;;10.38;8.63;;;23.40;51.20;;;;;;5031124;28;20043;-59
2021/05/04 01:10:36;;;;;;;11.48;8.13;;;23.40;51.20;;;;;;5031479;28;20034;-59
2021/05/04 01:13:02;;;;;;;10.63;8.13;;;23.40;51.30;;;;;;5031764;28;20092;-59
2021/05/04 01:15:29;;;;;;;8.27;7.50;;;23.40;51.20;;;;;;5030155;28;20037;-59
2021/05/04 01:17:56;;;;;;;8.98;7.07;;;23.40;51.20;;;;;;5031353;28;20601;-59
2021/05/04 01:20:23;;;;;;;11.00;6.65;;;23.40;51.20;;;;;;5031581;28;20101;-59
2021/05/04 01:22:50;;;;;;;9.63;7.30;;;23.40;51.20;;;;;;5030328;28;20764;-59
2021/05/04 01:25:16;;;;;;;9.38;7.03;;;23.30;51.10;;;;;;5030058;28;20025;-60
2021/05/04 01:27:43;;;;;;;8.88;6.55;;;23.40;51.20;;;;;;5030782;28;20056;-59
2021/05/04 01:30:09;;;;;;;11.60;6.78;;;23.30;51.10;;;;;;5029811;28;20583;-59
2021/05/04 01:32:36;;;;;;;8.07;6.90;;;23.40;51.20;;;;;;5029676;28;20391;-59
2021/05/04 01:35:07;;;;;;;9.32;6.18;;;23.40;51.20;;;;;;5031008;28;20045;-59
2021/05/04 01:37:33;;;;;;;8.95;6.60;;;23.30;51.20;;;;;;5031514;28;20025;-59
2021/05/04 01:39:59;;;;;;;8.68;6.40;;;23.30;51.10;;;;;;5023701;28;20744;-59
2021/05/04 01:42:25;;;;;;;9.48;6.43;;;23.30;51.20;;;;;;5011524;28;20045;-59
2021/05/04 01:44:51;;;;;;;11.80;5.90;;;23.30;51.20;;;;;;5028205;28;20037;-60
2021/05/04 01:47:17;;;;;;;7.32;4.93;;;23.30;51.20;;;;;;5019489;28;20026;-59
2021/05/04 01:49:43;;;;;;;8.77;6.22;;;23.30;51.10;;;;;;5030853;28;20021;-59
2021/05/04 01:52:10;;;;;;;9.90;6.35;;;23.30;51.20;;;;;;5030861;28;20080;-59
2021/05/04 01:54:37;;;;;;;7.95;5.72;;;23.30;51.20;;;;;;5010076;28;20030;-59
2021/05/04 01:57:04;;;;;;;9.13;5.25;;;23.30;51.20;;;;;;5024207;28;20049;-60
2021/05/04 01:59:30;;;;;;;11.15;5.55;;;23.30;51.20;;;;;;5033684;28;20032;-59
2021/05/04 02:01:57;;;;;;;5.53;5.00;;;23.30;51.20;;;;;;5034760;28;20025;-60
2021/05/04 02:04:24;;;;;;;7.63;5.10;;;23.30;51.20;;;;;;5034600;28;20065;-59
2021/05/04 02:06:54;;;;;;;6.93;5.25;;;23.30;51.10;;;;;;5035009;28;20029;-59
2021/05/04 02:09:20;;;;;;;6.38;4.80;;;23.30;51.10;;;;;;5034922;28;20109;-59
2021/05/04 02:11:46;;;;;;;9.98;5.45;;;23.30;51.20;;;;;;5034829;28;20071;-59
2021/05/04 02:14:12;;;;;;;6.45;5.05;;;23.30;51.10;;;;;;5034662;28;20479;-59
2021/05/04 02:16:38;;;;;;;8.13;4.60;;;23.30;51.10;;;;;;5034880;28;20441;-59
2021/05/04 02:19:05;;;;;;;7.30;4.53;;;23.30;51.10;;;;;;5034866;28;20045;-59
2021/05/04 02:21:31;;;;;;;8.20;4.57;;;23.30;51.10;;;;;;5034505;28;20057;-59
2021/05/04 02:23:57;;;;;;;6.90;4.32;;;23.30;51.10;;;;;;5035072;28;20141;-59
2021/05/04 02:26:24;;;;;;;5.93;4.35;;;23.20;51.10;;;;;;5034805;28;20109;-59
2021/05/04 02:28:50;;;;;;;6.28;4.60;;;23.30;51.10;;;;;;5034305;28;20051;-59
2021/05/04 02:31:16;;;;;;;6.90;4.57;;;23.30;51.10;;;;;;5034192;28;20071;-59
2021/05/04 02:33:43;;;;;;;7.22;4.60;;;23.20;51.10;;;;;;5034699;28;20039;-59
2021/05/04 02:36:10;;;;;;;6.60;4.78;;;23.30;51.20;;;;;;5034404;28;20033;-59
2021/05/04 02:38:37;;;;;;;8.23;4.80;;;23.20;51.10;;;;;;5032990;28;20321;-59
2021/05/04 02:41:05;;;;;;;6.80;4.22;;;23.20;51.10;;;;;;5034282;28;20036;-58
2021/05/04 02:43:32;;;;;;;9.75;4.53;;;23.20;51.10;;;;;;5034476;28;20211;-59
2021/05/04 02:45:59;;;;;;;6.10;3.85;;;23.20;51.10;;;;;;5033974;28;20033;-59
2021/05/04 02:48:26;;;;;;;9.32;4.32;;;23.20;51.10;;;;;;5034114;28;20057;-59
2021/05/04 02:50:52;;;;;;;4.78;3.90;;;23.20;51.10;;;;;;5034252;28;20493;-59
2021/05/04 02:53:18;;;;;;;6.03;4.13;;;23.20;51.10;;;;;;5032649;28;20021;-60
2021/05/04 02:55:44;;;;;;;7.32;4.28;;;23.20;51.10;;;;;;5034046;28;20099;-59
2021/05/04 02:58:12;;;;;;;6.07;4.72;;;23.20;51.10;;;;;;5033976;28;20365;-58
2021/05/04 03:00:38;;;;;;;6.90;4.05;;;23.20;51.10;;;;;;5033622;28;20026;-59
2021/05/04 03:03:04;;;;;;;7.57;4.53;;;23.20;51.10;;;;;;5033602;28;20026;-60
2021/05/04 03:05:30;;;;;;;4.90;3.38;;;23.20;51.10;;;;;;5032920;28;20036;-59
2021/05/04 03:07:56;;;;;;;5.93;4.50;;;23.20;51.10;;;;;;5033715;28;20379;-59
2021/05/04 03:10:22;;;;;;;7.07;4.30;;;23.20;51.10;;;;;;5032354;28;20111;-58
2021/05/04 03:12:48;;;;;;;7.25;4.45;;;23.20;51.10;;;;;;5033724;28;20030;-59
2021/05/04 03:15:15;;;;;;;5.57;4.40;;;23.10;51.10;;;;;;5033612;28;20159;-59
2021/05/04 03:17:41;;;;;;;5.13;4.20;;;23.10;51.10;;;;;;5033503;28;20092;-59
2021/05/04 03:20:08;;;;;;;6.22;3.63;;;23.10;51.10;;;;;;5033368;28;20168;-59
2021/05/04 03:22:34;;;;;;;5.20;3.65;;;23.10;51.10;;;;;;5033716;28;20021;-59
2021/05/04 03:25:00;;;;;;;6.60;3.75;;;23.10;51.70;;;;;;5033772;28;20029;-59
2021/05/04 03:27:26;;;;;;;4.80;3.70;;;23.10;51.10;;;;;;5031760;28;20808;-59
2021/05/04 03:29:52;;;;;;;7.35;3.83;;;23.10;51.10;;;;;;5021628;28;20071;-59
2021/05/04 03:32:18;;;;;;;6.90;3.42;;;23.10;51.10;;;;;;5032927;28;20450;-59
2021/05/04 03:34:44;;;;;;;6.07;3.65;;;23.10;51.10;;;;;;5033376;28;20160;-58
2021/05/04 03:37:10;;;;;;;4.80;3.58;;;23.10;51.10;;;;;;5033150;28;20392;-59
2021/05/04 03:39:36;;;;;;;7.72;3.70;;;23.00;51.10;;;;;;5033234;28;20056;-59
2021/05/04 03:42:01;;;;;;;7.88;3.53;;;23.10;51.20;;;;;;5033055;28;20454;-59
2021/05/04 03:44:27;;;;;;;7.03;3.60;;;23.10;51.20;;;;;;5032886;28;20029;-59
2021/05/04 03:46:54;;;;;;;7.57;3.92;;;23.00;51.10;;;;;;5032675;28;20104;-59
2021/05/04 03:49:19;;;;;;;3.85;3.30;;;23.00;51.10;;;;;;5033322;28;20153;-59
2021/05/04 03:51:46;;;;;;;9.23;3.88;;;23.00;51.10;;;;;;5032744;28;20108;-59
2021/05/04 03:54:12;;;;;;;8.13;3.33;;;23.10;51.10;;;;;;5032892;28;20028;-59
2021/05/04 03:56:38;;;;;;;9.10;4.00;;;23.00;51.10;;;;;;5033072;28;20101;-58
2021/05/04 03:59:04;;;;;;;3.63;2.88;;;23.00;51.10;;;;;;5015437;28;20031;-58
2021/05/04 04:01:31;;;;;;;5.35;3.28;;;23.00;51.10;;;;;;5014904;28;20025;-58
2021/05/04 04:03:57;;;;;;;7.40;3.50;;;23.00;51.10;;;;;;5032514;28;20033;-58
2021/05/04 04:06:23;;;;;;;4.20;3.30;;;23.00;51.20;;;;;;5032634;28;20041;-58
2021/05/04 04:08:50;;;;;;;4.55;3.17;;;23.00;51.10;;;;;;5033020;28;20041;-58
2021/05/04 04:11:16;;;;;;;6.68;3.20;;;22.90;51.10;;;;;;5032344;28;20033;-58
2021/05/04 04:13:42;;;;;;;8.35;3.67;;;23.00;51.20;;;;;;5032345;28;20022;-58
2021/05/04 04:16:08;;;;;;;6.53;3.55;;;23.00;51.20;;;;;;5031234;28;20030;-59
2021/05/04 04:18:34;;;;;;;6.18;3.67;;;22.90;51.10;;;;;;5032628;28;20400;-59
2021/05/04 04:21:00;;;;;;;6.40;3.60;;;22.90;51.10;;;;;;5032363;28;20026;-59
2021/05/04 04:23:26;;;;;;;7.03;2.70;;;22.90;51.20;;;;;;5032543;28;20199;-58
2021/05/04 04:25:53;;;;;;;7.00;3.80;;;22.90;51.10;;;;;;5032416;28;20887;-58
2021/05/04 04:28:19;;;;;;;6.95;3.53;;;22.90;51.20;;;;;;5032801;28;20026;-58
2021/05/04 04:30:45;;;;;;;8.00;3.30;;;23.00;51.20;;;;;;5031912;28;20403;-58
2021/05/04 04:33:11;;;;;;;5.68;2.92;;;22.90;51.10;;;;;;5030503;28;20029;-59
2021/05/04 04:35:37;;;;;;;5.82;3.38;;;22.90;51.20;;;;;;5032028;28;20029;-59
2021/05/04 04:38:03;;;;;;;6.18;3.40;;;22.90;51.10;;;;;;5031939;28;20051;-58
2021/05/04 04:40:29;;;;;;;6.53;3.72;;;22.90;51.20;;;;;;5030880;28;20463;-59
2021/05/04 04:42:55;;;;;;;6.07;3.13;;;22.90;51.10;;;;;;5032062;28;20127;-58
2021/05/04 04:45:21;;;;;;;7.25;3.70;;;22.90;51.10;;;;;;5031955;28;20049;-59
2021/05/04 04:47:47;;;;;;;5.80;2.72;;;22.90;51.20;;;;;;5032231;28;20017;-58
2021/05/04 04:50:13;;;;;;;4.65;3.47;;;22.90;51.10;;;;;;5031384;28;20029;-59
2021/05/04 04:52:39;;;;;;;7.72;3.17;;;22.90;51.10;;;;;;5031786;28;20054;-58
2021/05/04 04:55:06;;;;;;;7.85;3.50;;;22.90;51.20;;;;;;5031715;28;20026;-59
2021/05/04 04:57:32;;;;;;;4.88;2.55;;;22.90;51.20;;;;;;5031900;28;20033;-59
2021/05/04 04:59:59;;;;;;;6.28;3.00;;;22.90;51.10;;;;;;5031172;28;20097;-59
2021/05/04 05:02:25;;;;;;;5.53;3.05;;;22.90;51.20;;;;;;5031260;28;20156;-59
2021/05/04 05:04:51;;;;;;;6.18;2.88;;;22.90;51.20;;;;;;5030390;28;20104;-59
2021/05/04 05:07:17;;;;;;;5.03;3.22;;;22.90;51.10;;;;;;5031437;28;20091;-58
2021/05/04 05:09:45;;;;;;;8.23;3.42;;;22.90;51.80;;;;;;5031536;28;20042;-58
2021/05/04 05:12:12;;;;;;;6.57;3.33;;;22.90;51.20;;;;;;5029939;28;20156;-58
2021/05/04 05:14:39;;;;;;;3.47;2.58;;;22.80;51.10;;;;;;5031652;28;20040;-58
2021/05/04 05:17:05;;;;;;;4.07;2.90;;;22.90;51.10;;;;;;5019989;28;20064;-58
2021/05/04 05:19:32;;;;;;;6.72;2.90;;;22.90;51.20;;;;;;5031620;28;20542;-59
2021/05/04 05:22:00;;;;;;;4.63;2.80;;;22.90;51.20;;;;;;5030299;28;20103;-58
2021/05/04 05:24:27;;;;;;;5.93;2.78;;;22.80;51.10;;;;;;5031422;28;20499;-59
2021/05/04 05:26:53;;;;;;;5.95;2.92;;;22.90;51.20;;;;;;5031010;28;20088;-59
2021/05/04 05:29:19;;;;;;;5.82;3.28;;;22.90;51.10;;;;;;5031343;28;20049;-59
2021/05/04 05:31:45;;;;;;;5.05;2.80;;;22.80;51.20;;;;;;5034306;28;20033;-60
2021/05/04 05:34:12;;;;;;;5.10;2.70;;;22.90;51.20;;;;;;5030499;28;20025;-59
2021/05/04 05:36:38;;;;;;;5.93;3.00;;;22.80;51.10;;;;;;5029461;28;20083;-60
2021/05/04 05:39:04;;;;;;;5.78;3.50;;;22.80;51.10;;;;;;5030921;28;20038;-59
2021/05/04 05:41:30;;;;;;;4.93;2.90;;;22.90;51.20;;;;;;5031184;28;20104;-60
2021/05/04 05:43:56;;;;;;;7.22;3.53;;;22.90;51.20;;;;;;5030046;28;20084;-59
2021/05/04 05:46:22;;;;;;;7.10;3.25;;;22.90;51.20;;;;;;5031219;28;20029;-60
2021/05/04 05:48:48;;;;;;;6.25;2.70;;;22.90;51.20;;;;;;5031196;28;20083;-59
2021/05/04 05:51:14;;;;;;;7.20;3.25;;;22.90;51.20;;;;;;5030969;28;20038;-60
2021/05/04 05:53:40;;;;;;;5.18;3.15;;;22.90;51.10;;;;;;5035677;28;20123;-59
2021/05/04 05:56:07;;;;;;;5.72;3.00;;;22.80;51.10;;;;;;5050833;28;20053;-59
2021/05/04 05:58:33;;;;;;;7.72;2.55;;;22.80;51.10;;;;;;5051049;28;20044;-59
2021/05/04 06:01:00;;;;;;;4.50;2.65;;;22.80;51.10;;;;;;5038880;28;20410;-59
2021/05/04 06:03:28;;;;;;;9.30;3.92;;;22.90;51.10;;;;;;5030426;28;20036;-58
2021/05/04 06:05:54;;;;;;;6.90;3.13;;;22.90;51.10;;;;;;5027541;28;20042;-58
2021/05/04 06:08:20;;;;;;;7.95;3.65;;;22.90;51.00;;;;;;5029948;28;20052;-59
2021/05/04 06:10:47;;;;;;;6.28;3.13;;;22.90;51.00;;;;;;5030273;28;20088;-58
2021/05/04 06:13:13;;;;;;;7.10;3.60;;;22.90;51.00;;;;;;5029275;28;20064;-59
2021/05/04 06:15:40;;;;;;;6.88;3.88;;;22.90;51.00;;;;;;5032727;28;20021;-58
2021/05/04 06:18:06;;;;;;;7.57;3.28;;;22.90;51.00;;;;;;5050891;28;20025;-58
2021/05/04 06:20:33;;;;;;;14.13;4.82;;;22.90;50.90;;;;;;5050691;28;20109;-58
2021/05/04 06:22:59;;;;;;;11.05;4.90;;;22.90;50.90;;;;;;5050525;28;20475;-58
2021/05/04 06:25:25;;;;;;;7.95;5.43;;;22.90;50.80;;;;;;5050684;28;20431;-58
2021/05/04 06:27:53;;;;;;;10.32;5.25;;;22.90;50.80;;;;;;5050415;28;20028;-58
2021/05/04 06:30:20;;;;;;;14.27;5.18;;;22.90;50.80;;;;;;5050505;28;20191;-58
2021/05/04 06:32:48;;;;;;;9.68;4.75;;;22.90;50.80;;;;;;5050517;28;20045;-58
2021/05/04 06:35:18;;;;;;;7.68;4.72;;;22.90;50.80;;;;;;5050825;28;20047;-58
2021/05/04 06:37:45;;;;;;;9.05;4.75;;;22.90;50.70;;;;;;5050659;28;20052;-59
2021/05/04 06:40:12;;;;;;;11.23;5.70;;;22.90;50.70;;;;;;5050764;28;20075;-59
2021/05/04 06:42:38;;;;;;;9.90;4.60;;;22.90;50.70;;;;;;5049044;28;20498;-58
2021/05/04 06:45:06;;;;;;;12.13;4.63;;;22.90;50.70;;;;;;5052426;28;20063;-58
2021/05/04 06:47:32;;;;;;;9.55;4.97;;;22.80;50.70;;;;;;5054002;28;20098;-58
2021/05/04 06:49:59;;;;;;;15.07;4.43;;;22.80;50.70;;;;;;5054064;28;20037;-58
2021/05/04 06:52:25;;;;;;;9.20;4.10;;;22.80;50.80;;;;;;5054032;28;20478;-58
2021/05/04 06:54:51;;;;;;;8.95;4.53;;;22.80;50.80;;;;;;5054055;28;20025;-59
2021/05/04 06:57:18;;;;;;;7.93;4.43;;;22.80;50.90;;;;;;5052849;28;20459;-58
2021/05/04 06:59:44;;;;;;;10.35;4.80;;;22.80;50.90;;;;;;5052835;28;20459;-58
2021/05/04 07:02:10;;;;;;;11.95;5.15;;;22.80;50.80;;;;;;5053896;28;20021;-58
2021/05/04 07:04:36;;;;;;;9.40;4.85;;;22.90;50.90;;;;;;5043997;28;20029;-58
2021/05/04 07:07:03;;;;;;;12.38;5.03;;;22.90;50.90;;;;;;5033163;28;20033;-58
2021/05/04 07:09:29;;;;;;;15.30;5.28;;;22.90;50.90;;;;;;5033034;28;20025;-58
2021/05/04 07:11:55;;;;;;;13.93;5.80;;;22.90;50.90;;;;;;5032821;28;20090;-58
2021/05/04 07:14:21;;;;;;;10.10;5.35;;;22.90;50.90;;;;;;5031776;28;20036;-58
2021/05/04 07:16:47;;;;;;;10.07;5.72;;;22.90;50.90;;;;;;5031722;28;20467;-58
2021/05/04 07:19:13;;;;;;;9.25;5.90;;;23.00;51.00;;;;;;5032991;28;20461;-58
2021/05/04 07:21:39;;;;;;;10.80;5.57;;;23.00;50.90;;;;;;5032983;28;20041;-58
2021/05/04 07:24:06;;;;;;;10.43;4.63;;;23.00;51.00;;;;;;5033118;28;20099;-59
2021/05/04 07:26:32;;;;;;;10.05;5.10;;;23.10;51.00;;;;;;5031215;28;20091;-59
2021/05/04 07:29:02;;;;;;;10.63;5.00;;;23.00;50.90;;;;;;5031554;28;20056;-59
2021/05/04 07:31:34;;;;;;;8.80;5.03;;;23.10;50.90;;;;;;5031549;28;20033;-59
2021/05/04 07:34:00;;;;;;;6.88;4.75;;;23.10;50.90;;;;;;5031638;28;20042;-59
2021/05/04 07:36:29;;;;;;;22.00;10.00;;;23.10;50.90;;;;;;5031496;28;20076;-59
2021/05/04 07:38:56;;;;;;;24.80;18.08;;;23.20;50.90;;;;;;5031972;28;20063;-59
2021/05/04 07:41:23;;;;;;;23.05;19.10;;;23.20;50.80;;;;;;5031912;28;20030;-59
2021/05/04 07:43:49;;;;;;;16.85;12.82;;;23.20;50.80;;;;;;5032015;28;20551;-60
2021/05/04 07:46:15;;;;;;;20.95;12.38;;;23.20;50.80;;;;;;5031710;28;20061;-59
2021/05/04 07:48:42;;;;;;;18.50;12.77;;;23.20;50.80;;;;;;5032172;28;20034;-59
2021/05/04 07:51:09;;;;;;;15.18;10.45;;;23.20;50.70;;;;;;5031841;28;20497;-59
2021/05/04 07:53:35;;;;;;;20.52;11.13;;;23.20;50.80;;;;;;5032211;28;20025;-59
2021/05/04 07:56:01;;;;;;;14.35;10.77;;;23.30;51.30;;;;;;5027404;28;20136;-59
2021/05/04 07:58:28;;;;;;;18.70;10.63;;;23.30;50.70;;;;;;5018557;28;20026;-59
2021/05/04 08:00:55;;;;;;;12.75;9.07;;;23.30;50.70;;;;;;5031931;28;20100;-58
2021/05/04 08:03:21;;;;;;;77.82;67.97;;;23.30;50.70;;;;;;5029890;28;20513;-58
2021/05/04 08:05:47;;;;;;;61.17;47.42;;;23.30;50.80;;;;;;5032031;28;20018;-58
2021/05/04 08:08:13;;;;;;;67.40;52.55;;;23.30;51.10;;;;;;5031944;28;20033;-58
2021/05/04 08:10:40;;;;;;;53.53;45.15;;;23.40;51.00;;;;;;5031824;28;20029;-58
2021/05/04 08:13:06;;;;;;;51.22;42.95;;;23.40;51.10;;;;;;5032074;28;20476;-58
2021/05/04 08:15:32;;;;;;;31.38;23.73;;;23.40;51.00;;;;;;5031974;28;20030;-58
2021/05/04 08:18:02;;;;;;;40.97;29.88;;;23.40;51.40;;;;;;5031804;28;20460;-58
2021/05/04 08:20:32;;;;;;;37.85;26.98;;;23.40;51.30;;;;;;5030566;28;20036;-58
2021/05/04 08:22:59;;;;;;;39.60;23.25;;;23.40;51.20;;;;;;5031639;28;20033;-59
2021/05/04 08:25:26;;;;;;;30.05;18.95;;;23.50;51.50;;;;;;5030420;28;20108;-58
2021/05/04 08:27:52;;;;;;;28.27;17.70;;;23.50;51.60;;;;;;5031219;28;20029;-59
2021/05/04 08:30:19;;;;;;;31.95;16.25;;;23.50;51.60;;;;;;5030329;28;20536;-59
2021/05/04 08:32:47;;;;;;;32.47;15.57;;;23.50;51.60;;;;;;5028655;28;20164;-59
2021/05/04 08:35:13;;;;;;;29.30;13.57;;;23.50;51.70;;;;;;5030936;28;20037;-59
2021/05/04 08:37:40;;;;;;;30.30;15.07;;;23.50;51.70;;;;;;5029918;28;20445;-59
2021/05/04 08:40:07;;;;;;;27.15;14.50;;;23.60;51.70;;;;;;5031619;28;20041;-59
2021/05/04 08:42:33;;;;;;;20.02;10.45;;;23.50;51.60;;;;;;5029944;28;20517;-58
2021/05/04 08:45:03;;;;;;;25.58;11.43;;;23.60;51.70;;;;;;5031358;28;20032;-59
2021/05/04 08:47:29;;;;;;;22.98;10.68;;;23.50;51.60;;;;;;5029444;28;20025;-59
2021/05/04 08:49:55;;;;;;;19.73;9.75;;;23.60;51.70;;;;;;5029780;28;20033;-58
2021/05/04 08:52:22;;;;;;;20.20;9.35;;;23.70;51.70;;;;;;5031059;28;20029;-58
2021/05/04 08:54:48;;;;;;;16.80;7.53;;;23.60;51.70;;;;;;5031301;28;20044;-58
2021/05/04 08:57:14;;;;;;;26.10;7.65;;;23.70;51.70;;;;;;5030803;28;20076;-59
2021/05/04 08:59:40;;;;;;;21.73;6.50;;;23.70;51.90;;;;;;5030650;28;20084;-64
2021/05/04 09:02:06;;;;;;;20.25;6.50;;;23.70;51.90;;;;;;5030836;28;20029;-58
2021/05/04 09:04:38;;;;;;;26.75;6.65;;;23.70;51.80;;;;;;5028228;28;20403;-58
2021/05/04 09:07:29;;;;;;;25.23;6.75;;;23.70;51.90;;;;;;5042964;28;20144;-60
2021/05/04 09:13:00;;;;;;;24.48;6.50;;;23.80;51.90;;;;;;5010130;28;20029;-58
2021/05/04 09:15:41;;;;;;;17.55;5.93;;;23.80;51.70;;;;;;5011937;28;20041;-58
2021/05/04 09:18:38;;;;;;;20.83;6.95;;;23.80;51.70;;;;;;5010403;28;20034;-59
2021/05/04 09:21:09;;;;;;;15.07;6.30;;;23.80;51.70;;;;;;5011721;28;20030;-58
2021/05/04 09:23:43;;;;;;;20.58;5.88;;;23.90;51.50;;;;;;5011819;28;20384;-58
2021/05/04 09:26:19;;;;;;;26.63;7.15;;;24.00;51.60;;;;;;5011685;28;20034;-59
2021/05/04 09:28:50;;;;;;;19.05;6.53;;;24.00;51.50;;;;;;5011342;28;20463;-59
2021/05/04 09:31:34;;;;;;;16.05;6.47;;;24.00;51.30;;;;;;5011764;28;20476;-59
2021/05/04 09:34:14;;;;;;;20.42;6.20;;;24.10;51.40;;;;;;5011606;28;20030;-59
2021/05/04 09:36:48;;;;;;;14.82;6.50;;;24.10;51.30;;;;;;5011582;28;20402;-59
2021/05/04 09:39:29;;;;;;;13.93;5.70;;;24.20;51.20;;;;;;5011334;28;20038;-59
2021/05/04 09:41:57;;;;;;;14.70;6.05;;;24.20;51.20;;;;;;5010150;28;20038;-59
2021/05/04 09:44:41;;;;;;;13.38;5.53;;;24.30;51.10;;;;;;5011650;28;20053;-59
2021/05/04 09:47:09;;;;;;;10.90;5.25;;;24.30;51.00;;;;;;5011673;28;20025;-59
2021/05/04 09:49:37;;;;;;;13.52;5.13;;;24.30;50.90;;;;;;5011596;28;20534;-59
2021/05/04 09:52:46;;;;;;;14.27;4.40;;;24.40;50.90;;;;;;5011314;28;20427;-59
2021/05/04 09:55:12;;;;;;;17.52;4.47;;;24.40;49.50;;;;;;5011166;28;20547;-57
2021/05/04 09:57:43;;;;;;;14.23;3.78;;;24.40;49.40;;;;;;5011315;28;20108;-56
2021/05/04 10:00:13;;;;;;;13.82;4.38;;;24.40;49.40;;;;;;5010370;28;20116;-56
2021/05/04 10:02:40;;;;;;;;;;;24.40;49.40;;;;;;5010658;28;20054;-57
2021/05/04 10:05:17;;;;;;;10.25;3.70;;;24.40;50.00;;;;;;5011709;28;20371;-57
2021/05/04 10:07:45;;;;;;;13.73;5.00;;;24.50;49.20;;;;;;5011693;28;20498;-57
2021/05/04 10:10:16;;;;;;;7.80;4.70;;;24.60;49.40;;;;;;5011587;28;20093;-57
2021/05/04 10:12:45;;;;;;;11.05;3.75;;;24.60;49.40;;;;;;5011397;28;20046;-56
2021/05/04 10:15:14;;;;;;;12.82;4.30;;;24.60;49.40;;;;;;5011393;28;20113;-56
2021/05/04 10:17:41;;;;;;;18.25;4.95;;;24.70;49.30;;;;;;5009676;28;20048;-56
2021/05/04 10:20:14;;;;;;;12.60;4.15;;;24.70;49.30;;;;;;5012953;28;20030;-57
2021/05/04 10:22:41;;;;;;;10.63;3.72;;;24.80;49.10;;;;;;5015145;28;20377;-57
2021/05/04 10:25:20;;;;;;;10.98;3.72;;;24.80;49.20;;;;;;5014957;28;20034;-57
2021/05/04 10:27:51;;;;;;;9.13;3.15;;;24.90;48.90;;;;;;5014922;28;20026;-57
2021/05/04 10:30:22;;;;;;;12.55;3.80;;;24.90;48.60;;;;;;5014592;28;20066;-57
2021/05/04 10:32:56;;;;;;;8.27;2.97;;;24.90;48.30;;;;;;5014630;28;20048;-56
2021/05/04 10:35:32;;;;;;;15.45;4.10;;;25.00;48.80;;;;;;5013651;28;20404;-56
2021/05/04 10:38:09;;;;;;;10.77;3.75;;;25.10;48.20;;;;;;5014794;28;20110;-57
2021/05/04 10:40:40;;;;;;;13.90;3.55;;;25.10;48.00;;;;;;5014845;28;20088;-56
2021/05/04 10:43:21;;;;;;;;;;;25.10;47.80;;;;;;5014989;28;20507;-57
2021/05/04 10:45:51;;;;;;;10.43;3.13;;;25.20;48.60;;;;;;5014619;28;19909;-57
2021/05/04 10:48:35;;;;;;;8.05;2.83;;;25.30;47.70;;;;;;5012881;28;20030;-55
2021/05/04 10:51:02;;;;;;;17.70;4.18;;;25.30;47.50;;;;;;5014069;28;20114;-56
2021/05/04 10:53:57;;;;;;;17.17;3.53;;;25.30;47.40;;;;;;5043231;28;20108;-56
2021/05/04 10:56:35;;;;;;;15.20;4.00;;;25.30;47.40;;;;;;5014000;28;20034;-56
2021/05/04 10:59:02;;;;;;;16.33;4.00;;;25.30;47.20;;;;;;5014115;28;20137;-56
2021/05/04 11:01:29;;;;;;;26.33;4.05;;;25.40;47.40;;;;;;5013958;28;20026;-56
2021/05/04 11:03:57;;;;;;;32.20;5.60;;;25.40;47.40;;;;;;5014132;28;20096;-56
2021/05/04 11:06:26;;;;;;;21.67;3.60;;;25.40;47.30;;;;;;5014226;28;20034;-57
2021/05/04 11:08:52;;;;;;;15.18;3.53;;;25.40;47.00;;;;;;5013887;28;20042;-58
2021/05/04 11:11:28;;;;;;;13.15;3.05;;;25.50;47.00;;;;;;5013893;28;20547;-58
2021/05/04 11:13:58;;;;;;;11.40;4.03;;;25.50;46.60;;;;;;5013756;28;20431;-58
2021/05/04 11:16:31;;;;;;;16.38;5.40;;;25.50;46.80;;;;;;5014171;28;20034;-59
2021/05/04 11:19:05;;;;;;;10.18;4.45;;;25.60;46.40;;;;;;5013734;28;20369;-58
2021/05/04 11:21:46;;;;;;;10.18;3.50;;;25.50;46.30;;;;;;5013883;28;20109;-57
2021/05/04 11:24:14;;;;;;;10.13;4.20;;;25.60;46.30;;;;;;5013785;28;20030;-58
2021/05/04 11:26:49;;;;;;;9.75;4.65;;;25.70;46.50;;;;;;5013663;28;20026;-58
2021/05/04 11:29:21;;;;;;;10.30;4.93;;;25.60;46.10;;;;;;5013457;28;20129;-58
2021/05/04 11:31:49;;;;;;;10.73;4.65;;;25.70;46.20;;;;;;5012153;28;20096;-58
2021/05/04 11:34:51;;;;;;;13.35;5.38;;;25.70;46.30;;;;;;5013121;28;20526;-58
2021/05/04 11:37:21;;;;;;;10.00;4.97;;;25.70;46.40;;;;;;5013496;28;20057;-54
2021/05/04 11:40:07;;;;;;;11.85;6.00;;;25.80;46.30;;;;;;5012601;28;20069;-53
2021/05/04 11:42:33;;;;;;;9.35;5.22;;;25.70;46.40;;;;;;5014098;28;20440;-53
2021/05/04 11:45:05;;;;;;;13.60;5.70;;;25.80;46.40;;;;;;5013694;28;20025;-53
2021/05/04 11:47:32;;;;;;;12.18;5.93;;;25.80;46.40;;;;;;5013847;28;20095;-53
2021/05/04 11:50:23;;;;;;;11.55;5.60;;;25.80;46.40;;;;;;5013452;28;20029;-53
2021/05/04 11:53:01;;;;;;;12.13;5.07;;;25.70;46.70;;;;;;5011029;28;20705;-53
2021/05/04 11:55:30;;;;;;;16.90;5.78;;;25.80;46.60;;;;;;5013372;28;20432;-53
2021/05/04 11:58:10;;;;;;;10.02;5.40;;;25.80;46.70;;;;;;5013467;28;20148;-53
2021/05/04 12:00:38;;;;;;;11.23;5.47;;;25.80;46.80;;;;;;5013578;28;20088;-53
2021/05/04 12:03:12;;;;;;;11.98;5.20;;;25.80;46.80;;;;;;5013709;28;20034;-53
2021/05/04 12:05:39;;;;;;;9.07;6.03;;;25.80;46.90;;;;;;5013306;28;20056;-53
2021/05/04 12:08:06;;;;;;;10.63;6.13;;;25.80;46.90;;;;;;5013206;28;20029;-53
2021/05/04 12:10:35;;;;;;;11.93;6.50;;;25.80;46.90;;;;;;5013466;28;20029;-53
2021/05/04 12:13:07;;;;;;;11.23;6.75;;;25.80;46.80;;;;;;5013299;28;20026;-53
2021/05/04 12:15:39;;;;;;;10.77;6.68;;;25.80;47.50;;;;;;5013147;28;20030;-54
2021/05/04 12:18:13;;;;;;;11.20;7.80;;;25.80;46.90;;;;;;5012102;28;20037;-54
2021/05/04 12:20:47;;;;;;;10.30;6.32;;;25.90;46.90;;;;;;5013044;28;20037;-54
2021/05/04 12:23:34;;;;;;;12.30;6.88;;;25.90;46.90;;;;;;5011669;28;20034;-54
2021/05/04 12:26:12;;;;;;;8.65;7.13;;;25.90;46.90;;;;;;5012489;28;20046;-54
2021/05/04 12:28:53;;;;;;;9.63;6.93;;;25.90;46.80;;;;;;5012840;28;20030;-55
2021/05/04 12:31:44;;;;;;;10.38;7.15;;;26.00;46.80;;;;;;5044252;28;20057;-54
2021/05/04 12:34:10;;;;;;;11.27;7.55;;;26.00;46.90;;;;;;5013053;28;20030;-54
2021/05/04 12:36:49;;;;;;;10.02;7.30;;;26.00;46.70;;;;;;5012664;28;20545;-54
2021/05/04 12:39:30;;;;;;;9.18;7.55;;;26.10;46.80;;;;;;5012536;28;20037;-54
2021/05/04 12:41:59;;;;;;;19.92;12.75;;;26.10;46.70;;;;;;5021298;28;20104;-54
2021/05/04 12:44:36;;;;;;;18.73;14.63;;;26.10;46.60;;;;;;5031700;28;20029;-54
2021/05/04 12:47:11;;;;;;;18.42;14.65;;;26.10;46.50;;;;;;5031068;28;20037;-54
2021/05/04 12:49:42;;;;;;;23.50;18.70;;;26.10;46.50;;;;;;5031124;28;20483;-54
2021/05/04 12:52:10;;;;;;;23.98;20.95;;;26.10;46.40;;;;;;5031138;28;20120;-54